Time;durP1;ratioP1;P1;durP2;ratioP2;P2;SDS_P1;SDS_P2;PMS_P1;PMS_P2;Temp;Humidity;BMP_temperature;BMP_pressure;BME280_temperature;BME280_humidity;BME280_pressure;Samples;Min_cycle;Max_cycle;Signal;HPM_P1;HPM_P2
2022/06/22 00:02:02;;;;;;;22.08;15.27;;;20.60;83.70;;;;;;5034237;28;20098;-62
2022/06/22 00:04:37;;;;;;;16.88;14.98;;;20.50;83.90;;;;;;5034634;28;20396;-63
2022/06/22 00:07:22;;;;;;;16.40;14.63;;;20.50;83.80;;;;;;5034339;28;20022;-63
2022/06/22 00:09:54;;;;;;;20.48;15.45;;;20.50;83.80;;;;;;5034349;28;20112;-63
2022/06/22 00:12:26;;;;;;;19.63;15.77;;;20.50;83.90;;;;;;5034131;28;20029;-62
2022/06/22 00:14:55;;;;;;;19.13;15.32;;;20.50;84.00;;;;;;5034067;28;20501;-63
2022/06/22 00:17:31;;;;;;;16.60;15.00;;;20.40;84.00;;;;;;5033729;28;20463;-62
2022/06/22 00:20:00;;;;;;;21.23;15.68;;;20.50;84.00;;;;;;5034441;28;20155;-62
2022/06/22 00:22:26;;;;;;;21.67;16.88;;;20.40;84.00;;;;;;5034161;28;20044;-62
2022/06/22 00:25:09;;;;;;;17.10;14.70;;;20.40;84.10;;;;;;5034014;28;20391;-62
2022/06/22 00:27:36;;;;;;;18.23;15.10;;;20.30;84.40;;;;;;5029350;28;20021;-64
2022/06/22 00:30:27;;;;;;;21.05;15.90;;;20.30;85.30;;;;;;5031031;28;20510;-62
2022/06/22 00:33:00;;;;;;;17.80;15.20;;;20.20;84.90;;;;;;5032292;28;20028;-63
2022/06/22 00:35:46;;;;;;;20.77;15.40;;;20.20;84.90;;;;;;5030543;28;20029;-63
2022/06/22 00:38:19;;;;;;;18.63;15.55;;;20.30;84.90;;;;;;5033342;28;20033;-62
2022/06/22 00:40:52;;;;;;;16.65;14.85;;;20.20;85.10;;;;;;5033517;28;20025;-62
2022/06/22 00:43:20;;;;;;;17.50;15.68;;;20.20;85.10;;;;;;5033824;28;20034;-63
2022/06/22 00:45:48;;;;;;;19.70;15.35;;;20.20;85.00;;;;;;5033468;28;20024;-62
2022/06/22 00:48:28;;;;;;;19.42;15.65;;;20.20;85.20;;;;;;5033698;28;20033;-63
2022/06/22 00:51:04;;;;;;;21.13;16.80;;;20.20;85.40;;;;;;5034083;28;20024;-66
2022/06/22 00:53:35;;;;;;;16.63;14.88;;;20.10;85.60;;;;;;5033623;28;20463;-67
2022/06/22 00:56:49;;;;;;;16.95;14.93;;;20.10;85.80;;;;;;5033665;28;20022;-64
2022/06/22 00:59:20;;;;;;;19.08;15.30;;;20.00;85.90;;;;;;5015433;28;20045;-66
2022/06/22 01:01:55;;;;;;;19.05;15.27;;;20.10;85.50;;;;;;5033656;28;20036;-65
2022/06/22 01:04:37;;;;;;;21.88;16.45;;;20.10;85.60;;;;;;5033373;28;20021;-63
2022/06/22 01:07:15;;;;;;;16.45;14.82;;;20.10;85.70;;;;;;5033511;28;20028;-66
2022/06/22 01:09:55;;;;;;;20.45;16.42;;;20.10;85.80;;;;;;5015396;28;20056;-64
2022/06/22 01:12:41;;;;;;;21.95;16.08;;;20.00;86.00;;;;;;5033567;28;20025;-63
2022/06/22 01:15:11;;;;;;;17.35;14.93;;;20.00;86.00;;;;;;5033064;28;20432;-66
2022/06/22 01:18:07;;;;;;;16.70;14.90;;;20.00;85.90;;;;;;5033221;28;20080;-67
2022/06/22 01:20:53;;;;;;;19.10;15.05;;;20.00;86.10;;;;;;5015503;28;20125;-68
2022/06/22 01:23:50;;;;;;;17.52;14.73;;;19.90;86.00;;;;;;5019095;28;20524;-62
2022/06/22 01:26:40;;;;;;;15.05;13.45;;;19.90;85.90;;;;;;5033273;28;20025;-63
2022/06/22 01:29:26;;;;;;;19.08;13.82;;;19.90;85.50;;;;;;5032975;28;20026;-63
2022/06/22 01:32:00;;;;;;;16.27;13.10;;;19.90;85.20;;;;;;5032990;28;20017;-64
2022/06/22 01:34:33;;;;;;;14.82;12.77;;;19.90;85.00;;;;;;5032855;28;20021;-65
2022/06/22 01:37:05;;;;;;;15.38;11.63;;;19.80;84.90;;;;;;5015273;28;20095;-63
2022/06/22 01:39:31;;;;;;;19.90;12.15;;;19.90;84.70;;;;;;5033116;28;20045;-62
2022/06/22 01:42:03;;;;;;;16.08;11.35;;;19.80;84.50;;;;;;5032829;28;20399;-62
2022/06/22 01:44:35;;;;;;;;;;;19.80;84.40;;;;;;5033046;28;20033;-62
2022/06/22 01:47:25;;;;;;;13.30;11.00;;;19.90;84.20;;;;;;5032988;28;19905;-62
2022/06/22 01:50:09;;;;;;;13.02;10.27;;;19.80;84.00;;;;;;5032679;28;20030;-62
2022/06/22 01:53:08;;;;;;;12.90;10.38;;;19.70;84.00;;;;;;5015034;28;20028;-62
2022/06/22 01:55:59;;;;;;;12.02;9.57;;;19.80;83.90;;;;;;5032545;28;20036;-62
2022/06/22 01:58:53;;;;;;;13.77;9.50;;;19.70;83.70;;;;;;5032524;28;20441;-62
2022/06/22 02:01:41;;;;;;;10.82;9.18;;;19.60;83.90;;;;;;5032715;28;20036;-63
2022/06/22 02:04:33;;;;;;;11.43;9.13;;;19.70;83.80;;;;;;5032888;28;20025;-62
2022/06/22 02:10:23;;;;;;;10.68;9.25;;;19.60;84.00;;;;;;5033911;28;20109;-62
2022/06/22 02:12:55;;;;;;;12.23;8.48;;;19.60;83.60;;;;;;5036398;28;20037;-62
2022/06/22 02:15:50;;;;;;;11.20;9.18;;;19.60;83.50;;;;;;5036568;28;20013;-62
2022/06/22 02:18:32;;;;;;;10.55;8.65;;;19.60;83.40;;;;;;5027760;28;20044;-63
2022/06/22 02:21:26;;;;;;;9.57;8.55;;;19.60;83.20;;;;;;5036251;28;20083;-62
2022/06/22 02:24:03;;;;;;;11.15;8.98;;;19.60;83.40;;;;;;5021447;28;20031;-62
2022/06/22 02:26:42;;;;;;;11.18;8.13;;;19.60;83.20;;;;;;5036109;28;20029;-64
2022/06/22 02:29:09;;;;;;;12.50;9.73;;;19.50;83.20;;;;;;5036251;28;20022;-63
2022/06/22 02:31:35;;;;;;;15.07;9.82;;;19.50;83.40;;;;;;5036129;28;20068;-64
2022/06/22 02:34:02;;;;;;;12.35;10.25;;;19.50;83.50;;;;;;5036437;28;20534;-62
2022/06/22 02:36:32;;;;;;;14.23;9.73;;;19.50;83.40;;;;;;5036044;28;20112;-64
2022/06/22 02:39:01;;;;;;;11.25;9.88;;;19.50;83.50;;;;;;5035825;28;20038;-63
2022/06/22 02:44:31;;;;;;;11.27;9.82;;;19.40;83.90;;;;;;5036332;28;20122;-63
2022/06/22 02:47:03;;;;;;;11.95;10.07;;;19.40;84.10;;;;;;5035808;28;20115;-63
2022/06/22 02:49:37;;;;;;;10.80;9.75;;;19.40;84.10;;;;;;5035784;28;20029;-63
2022/06/22 02:52:04;;;;;;;12.00;10.60;;;19.40;84.30;;;;;;5035722;28;20032;-64
2022/06/22 02:54:36;;;;;;;14.20;10.15;;;19.40;84.20;;;;;;5035785;28;20065;-62
2022/06/22 02:57:25;;;;;;;10.75;9.63;;;19.40;84.30;;;;;;5035288;28;20478;-63
2022/06/22 02:59:52;;;;;;;13.13;10.13;;;19.40;84.40;;;;;;5035479;28;20052;-64
2022/06/22 03:02:19;;;;;;;14.63;11.02;;;19.40;84.50;;;;;;5035799;28;20022;-63
2022/06/22 03:04:47;;;;;;;14.57;11.07;;;19.30;84.50;;;;;;5035509;28;20437;-63
2022/06/22 03:07:14;;;;;;;15.38;10.45;;;19.30;84.70;;;;;;5035559;28;20394;-66
2022/06/22 03:09:42;;;;;;;13.10;10.93;;;19.30;84.70;;;;;;5035168;28;20017;-66
2022/06/22 03:12:12;;;;;;;13.82;10.38;;;19.30;84.80;;;;;;5017869;28;20481;-63
2022/06/22 03:14:54;;;;;;;14.02;10.63;;;19.30;85.60;;;;;;5035587;28;20041;-62
2022/06/22 03:17:28;;;;;;;12.23;9.77;;;19.30;85.00;;;;;;5035179;28;20026;-63
2022/06/22 03:20:08;;;;;;;11.25;10.13;;;19.30;85.10;;;;;;5035410;28;20030;-62
2022/06/22 03:22:37;;;;;;;12.00;10.68;;;19.20;85.30;;;;;;5035229;28;20076;-65
2022/06/22 03:25:30;;;;;;;12.88;10.07;;;19.20;85.50;;;;;;5034993;28;20056;-63
2022/06/22 03:28:03;;;;;;;14.50;9.65;;;19.20;85.70;;;;;;5035076;28;20017;-65
2022/06/22 03:30:52;;;;;;;11.88;10.25;;;19.20;85.60;;;;;;5034905;28;20029;-63
2022/06/22 03:33:41;;;;;;;11.60;10.13;;;19.20;85.80;;;;;;5035039;28;20049;-62
2022/06/22 03:36:21;;;;;;;12.95;10.30;;;19.20;85.90;;;;;;5035080;28;20044;-62
2022/06/22 03:38:52;;;;;;;13.80;9.95;;;19.20;85.90;;;;;;5034734;28;20414;-62
2022/06/22 03:41:21;;;;;;;11.68;9.60;;;19.20;86.20;;;;;;5034625;28;20033;-63
2022/06/22 03:44:27;;;;;;;12.88;9.45;;;19.10;86.30;;;;;;5017002;28;20112;-63
2022/06/22 03:47:09;;;;;;;13.50;9.57;;;19.10;86.40;;;;;;4935373;29;20517;-64
2022/06/22 03:49:45;;;;;;;11.85;9.55;;;19.10;86.60;;;;;;5028312;28;20038;-64
2022/06/22 03:52:32;;;;;;;11.55;9.85;;;19.10;86.60;;;;;;5016809;28;20479;-64
2022/06/22 03:55:12;;;;;;;13.10;9.32;;;19.10;86.70;;;;;;5034581;28;20105;-64
2022/06/22 03:57:40;;;;;;;11.32;10.20;;;19.10;86.80;;;;;;5016742;28;20123;-64
2022/06/22 04:00:08;;;;;;;13.43;9.80;;;19.10;87.00;;;;;;5034659;28;20104;-67
2022/06/22 04:02:35;;;;;;;9.93;8.82;;;19.00;87.00;;;;;;5016854;28;20036;-64
2022/06/22 04:05:02;;;;;;;12.32;9.82;;;19.00;87.20;;;;;;5034236;28;20104;-66
2022/06/22 04:07:39;;;;;;;13.23;9.18;;;19.00;87.30;;;;;;5034239;28;20014;-64
2022/06/22 04:10:13;;;;;;;10.80;9.02;;;19.00;87.40;;;;;;5034356;28;20079;-64
2022/06/22 04:12:45;;;;;;;12.57;9.48;;;19.00;87.60;;;;;;5034202;28;20701;-66
2022/06/22 04:15:32;;;;;;;11.30;8.38;;;19.00;87.50;;;;;;5034221;28;20061;-64
2022/06/22 04:18:02;;;;;;;11.40;9.13;;;19.10;87.50;;;;;;5034030;28;20099;-68
2022/06/22 04:20:52;;;;;;;9.02;8.15;;;19.10;87.40;;;;;;5034240;28;20028;-64
2022/06/22 04:23:22;;;;;;;11.43;9.10;;;19.10;87.40;;;;;;5033641;28;20021;-64
2022/06/22 04:25:48;;;;;;;13.98;9.10;;;19.00;87.80;;;;;;5033563;28;20025;-65
2022/06/22 04:28:15;;;;;;;10.75;9.15;;;19.00;88.00;;;;;;5033179;28;20527;-64
2022/06/22 04:30:48;;;;;;;12.05;7.68;;;18.90;88.10;;;;;;5032005;28;20027;-65
2022/06/22 04:33:26;;;;;;;9.45;8.43;;;18.90;88.40;;;;;;5032823;28;20017;-64
2022/06/22 04:36:17;;;;;;;12.55;8.57;;;19.00;88.20;;;;;;5033882;28;20108;-63
2022/06/22 04:38:58;;;;;;;12.18;8.80;;;19.10;88.00;;;;;;5029771;28;20049;-68
2022/06/22 04:41:31;;;;;;;9.25;7.57;;;19.00;87.80;;;;;;5008492;28;20029;-64
2022/06/22 04:44:01;;;;;;;13.48;8.32;;;19.10;87.80;;;;;;5016822;28;20439;-66
2022/06/22 04:46:33;;;;;;;11.70;9.18;;;19.20;87.60;;;;;;5013846;28;20494;-64
2022/06/22 04:49:05;;;;;;;13.32;9.05;;;19.10;88.10;;;;;;5013447;28;20041;-63
2022/06/22 04:51:35;;;;;;;10.63;9.20;;;19.10;88.10;;;;;;5013690;28;20096;-64
2022/06/22 04:54:12;;;;;;;13.60;9.15;;;19.10;88.30;;;;;;5012489;28;20033;-63
2022/06/22 04:56:41;;;;;;;13.07;8.68;;;19.10;88.60;;;;;;5013758;28;20104;-62
2022/06/22 04:59:10;;;;;;;12.52;9.00;;;19.10;88.80;;;;;;5013286;28;20032;-64
2022/06/22 05:01:50;;;;;;;13.85;9.48;;;19.10;88.60;;;;;;5018901;28;20028;-63
2022/06/22 05:04:22;;;;;;;12.25;9.05;;;19.20;88.50;;;;;;5013494;28;20498;-63
2022/06/22 05:07:16;;;;;;;12.25;9.48;;;19.20;88.60;;;;;;5011411;28;20533;-63
2022/06/22 05:09:49;;;;;;;10.85;8.93;;;19.00;89.10;;;;;;5013134;28;20483;-63
2022/06/22 05:12:19;;;;;;;14.48;10.13;;;19.10;88.70;;;;;;5012870;28;20022;-64
2022/06/22 05:14:45;;;;;;;15.98;10.32;;;19.20;88.90;;;;;;5013577;28;20034;-63
2022/06/22 05:17:31;;;;;;;16.48;10.00;;;19.10;88.60;;;;;;5013359;28;20029;-63
2022/06/22 05:20:08;;;;;;;11.93;9.55;;;19.10;88.60;;;;;;5013001;28;20554;-65
2022/06/22 05:22:33;;;;;;;14.18;10.50;;;19.10;88.70;;;;;;4995510;28;20026;-63
2022/06/22 05:25:03;;;;;;;13.10;10.15;;;19.20;88.70;;;;;;5030544;28;20100;-63
2022/06/22 05:27:34;;;;;;;15.50;9.15;;;19.20;88.60;;;;;;5017535;28;20029;-63
2022/06/22 05:30:05;;;;;;;17.17;11.65;;;19.20;88.60;;;;;;5032641;28;20028;-62
2022/06/22 05:32:52;;;;;;;14.45;11.77;;;19.10;89.00;;;;;;5026948;28;20036;-63
2022/06/22 05:35:31;;;;;;;18.05;13.20;;;19.10;89.40;;;;;;5023356;28;20029;-64
2022/06/22 05:37:59;;;;;;;16.80;12.85;;;19.10;90.00;;;;;;5032086;28;20507;-63
2022/06/22 05:40:28;;;;;;;15.52;12.10;;;19.20;90.10;;;;;;5031941;28;20045;-64
2022/06/22 05:42:55;;;;;;;15.23;13.10;;;19.30;90.30;;;;;;5032568;28;20060;-66
2022/06/22 05:45:24;;;;;;;14.43;12.60;;;19.50;90.20;;;;;;5033083;28;20017;-65
2022/06/22 05:47:53;;;;;;;16.83;13.60;;;19.60;90.20;;;;;;5035738;28;20030;-63
2022/06/22 05:50:37;;;;;;;16.15;12.52;;;19.80;90.10;;;;;;5036321;28;20065;-63
2022/06/22 05:53:11;;;;;;;15.70;11.25;;;19.90;89.60;;;;;;5036178;28;20025;-66
2022/06/22 05:55:37;;;;;;;10.55;8.98;;;20.00;89.40;;;;;;5035667;28;20084;-65
2022/06/22 05:58:29;;;;;;;11.48;7.78;;;20.10;87.90;;;;;;5036065;28;20029;-68
2022/06/22 06:00:58;;;;;;;11.30;6.53;;;20.30;86.60;;;;;;5035728;28;20482;-69
2022/06/22 06:03:45;;;;;;;14.35;7.25;;;20.40;85.70;;;;;;5035417;28;20371;-64
2022/06/22 06:06:15;;;;;;;8.43;5.05;;;20.50;86.20;;;;;;5028549;28;20033;-64
2022/06/22 06:08:59;;;;;;;6.93;3.80;;;20.60;85.00;;;;;;5034643;28;20022;-70
2022/06/22 06:11:50;;;;;;;5.70;4.80;;;20.70;84.60;;;;;;5035195;28;20035;-68
2022/06/22 06:14:28;;;;;;;8.98;4.63;;;20.70;84.50;;;;;;5036153;28;20072;-69
2022/06/22 06:16:58;;;;;;;7.65;3.58;;;20.80;84.50;;;;;;5035164;28;20033;-67
2022/06/22 06:19:30;;;;;;;10.32;6.35;;;20.90;84.10;;;;;;5017080;28;20037;-69
2022/06/22 06:21:59;;;;;;;11.70;7.82;;;20.90;84.90;;;;;;5036386;28;20025;-69
2022/06/22 06:24:33;;;;;;;11.15;7.05;;;21.00;85.30;;;;;;5035104;28;20036;-68
2022/06/22 06:30:01;;;;;;;10.65;8.07;;;21.10;85.70;;;;;;5032592;28;20501;-70
2022/06/22 06:32:47;;;;;;;13.82;7.15;;;21.20;86.10;;;;;;5019595;28;20550;-70
2022/06/22 06:35:26;;;;;;;10.02;7.60;;;21.20;85.90;;;;;;5022349;28;20097;-67
2022/06/22 06:38:02;;;;;;;10.93;6.40;;;21.20;86.30;;;;;;5035979;28;20021;-67
2022/06/22 06:40:33;;;;;;;10.23;5.97;;;21.30;86.40;;;;;;5034734;28;20079;-67
2022/06/22 06:43:06;;;;;;;10.32;6.15;;;21.40;86.00;;;;;;5017863;28;20040;-65
2022/06/22 06:45:32;;;;;;;11.13;6.15;;;21.40;85.60;;;;;;5035567;28;20033;-65
2022/06/22 06:48:02;;;;;;;13.02;6.70;;;21.50;85.40;;;;;;5031680;28;20025;-65
2022/06/22 06:50:38;;;;;;;10.90;7.57;;;21.50;84.60;;;;;;5032638;28;20562;-68
2022/06/22 06:53:18;;;;;;;12.55;7.03;;;21.60;82.20;;;;;;5034483;28;20115;-67
2022/06/22 06:55:56;;;;;;;10.60;7.25;;;21.70;81.00;;;;;;5033482;28;20131;-68
2022/06/22 06:58:46;;;;;;;8.68;5.47;;;21.70;79.90;;;;;;5017426;28;20076;-71
2022/06/22 07:01:20;;;;;;;9.43;5.53;;;21.80;80.00;;;;;;5016740;28;20394;-70
2022/06/22 07:03:49;;;;;;;10.30;5.20;;;21.90;78.90;;;;;;5034333;28;20029;-70
2022/06/22 07:06:15;;;;;;;9.40;5.88;;;21.90;79.30;;;;;;5033866;28;20014;-69
2022/06/22 07:08:58;;;;;;;7.22;4.68;;;21.90;78.10;;;;;;5034196;28;20501;-66
2022/06/22 07:11:31;;;;;;;9.57;4.47;;;21.90;78.30;;;;;;5034674;28;20025;-71
2022/06/22 07:14:04;;;;;;;7.97;4.50;;;22.00;78.70;;;;;;5034246;28;20640;-70
2022/06/22 07:16:30;;;;;;;8.60;4.35;;;22.00;78.90;;;;;;5033949;28;20049;-71
2022/06/22 07:19:05;;;;;;;9.73;4.60;;;22.10;78.30;;;;;;5029844;28;20088;-64
2022/06/22 07:21:43;;;;;;;10.18;4.45;;;22.10;78.00;;;;;;5033939;28;20180;-64
2022/06/22 07:24:19;;;;;;;7.68;4.05;;;22.20;77.50;;;;;;5033067;28;20470;-66
2022/06/22 07:26:56;;;;;;;6.25;3.90;;;22.20;77.90;;;;;;5033368;28;20021;-65
2022/06/22 07:29:43;;;;;;;9.90;3.97;;;22.20;77.90;;;;;;5033795;28;20021;-67
2022/06/22 07:32:39;;;;;;;9.18;3.47;;;22.20;77.80;;;;;;5032927;28;20399;-65
2022/06/22 07:35:30;;;;;;;7.40;3.90;;;22.20;77.60;;;;;;5032921;28;20387;-65
2022/06/22 07:38:32;;;;;;;8.15;3.50;;;22.40;76.60;;;;;;5033692;28;20442;-66
2022/06/22 07:43:44;;;;;;;6.30;3.40;;;22.40;76.60;;;;;;5031159;28;20172;-65
2022/06/22 07:46:17;;;;;;;6.32;3.22;;;22.50;75.50;;;;;;5031172;28;20108;-66
2022/06/22 07:48:46;;;;;;;6.28;3.38;;;22.60;76.00;;;;;;5034363;28;20159;-67
2022/06/22 07:51:19;;;;;;;7.43;2.88;;;22.60;74.60;;;;;;5020053;28;20018;-67
2022/06/22 07:53:59;;;;;;;7.93;2.67;;;22.60;75.50;;;;;;5031562;28;20025;-72
2022/06/22 07:56:33;;;;;;;9.23;3.50;;;22.60;75.50;;;;;;5031280;28;20078;-68
2022/06/22 07:59:27;;;;;;;5.70;2.85;;;22.60;75.70;;;;;;5013569;28;20030;-66
2022/06/22 08:01:59;;;;;;;8.57;2.60;;;22.70;76.00;;;;;;5033848;28;20017;-72
2022/06/22 08:04:35;;;;;;;6.43;2.72;;;22.70;75.90;;;;;;5012262;28;20578;-73
2022/06/22 08:07:20;;;;;;;7.43;2.90;;;22.70;75.60;;;;;;5022938;28;20056;-73
2022/06/22 08:10:28;;;;;;;6.88;2.88;;;22.70;74.90;;;;;;5010940;28;20034;-71
2022/06/22 08:13:01;;;;;;;6.60;2.60;;;22.80;74.80;;;;;;5030897;28;20499;-72
2022/06/22 08:15:31;;;;;;;5.10;2.10;;;22.80;74.70;;;;;;5027780;28;20041;-73
2022/06/22 08:18:06;;;;;;;5.85;2.20;;;22.80;74.60;;;;;;5029450;28;20029;-73
2022/06/22 08:21:13;;;;;;;6.32;2.20;;;22.90;74.50;;;;;;5025287;28;20108;-69
2022/06/22 08:23:43;;;;;;;7.40;2.85;;;22.90;73.20;;;;;;5022389;28;20522;-71
2022/06/22 08:26:33;;;;;;;5.43;2.40;;;23.00;73.00;;;;;;5020302;28;20029;-70
2022/06/22 08:29:05;;;;;;;3.85;1.92;;;23.10;72.50;;;;;;5030603;28;20025;-71
2022/06/22 08:31:42;;;;;;;10.55;2.22;;;23.10;72.80;;;;;;5026598;28;20235;-64
2022/06/22 08:34:15;;;;;;;6.57;2.30;;;23.10;72.20;;;;;;5028501;28;20026;-64
2022/06/22 08:36:58;;;;;;;4.15;2.00;;;23.20;72.10;;;;;;5031139;28;20494;-63
2022/06/22 08:39:34;;;;;;;5.15;1.85;;;23.30;72.00;;;;;;5027598;28;20121;-63
2022/06/22 08:42:38;;;;;;;6.97;1.90;;;23.20;72.10;;;;;;5023578;28;20026;-67
2022/06/22 08:48:47;;;;;;;5.45;2.00;;;23.30;72.60;;;;;;5022163;28;20044;-71
2022/06/22 08:51:24;;;;;;;3.33;1.73;;;23.20;72.60;;;;;;5020804;28;20029;-68
2022/06/22 08:54:28;;;;;;;5.65;1.50;;;23.50;67.90;;;;;;5032554;28;20029;-68
2022/06/22 08:57:07;;;;;;;4.00;1.60;;;23.50;69.10;;;;;;4972422;28;20089;-70
2022/06/22 08:59:45;;;;;;;4.20;1.83;;;23.40;69.30;;;;;;5032064;28;20041;-72
2022/06/22 09:02:30;;;;;;;3.80;1.80;;;23.50;67.60;;;;;;5032391;28;20068;-62
2022/06/22 09:05:31;;;;;;;8.63;2.08;;;23.60;66.50;;;;;;5032353;28;20494;-61
2022/06/22 09:08:19;;;;;;;3.35;1.80;;;23.60;67.10;;;;;;5021707;28;20033;-63
2022/06/22 09:11:16;;;;;;;4.40;1.90;;;23.70;67.00;;;;;;5018651;28;20033;-69
2022/06/22 09:14:07;;;;;;;4.75;2.10;;;23.90;62.90;;;;;;5030988;28;20116;-71
2022/06/22 09:16:57;;;;;;;5.88;1.65;;;23.90;64.40;;;;;;5012734;28;20040;-72
2022/06/22 09:20:02;;;;;;;5.25;2.00;;;23.80;64.10;;;;;;5027233;28;20045;-66
2022/06/22 09:22:57;;;;;;;4.13;1.38;;;23.80;65.50;;;;;;5000638;28;20450;-72
2022/06/22 09:25:49;;;;;;;5.68;1.77;;;23.70;66.90;;;;;;5016409;28;20034;-70
2022/06/22 09:28:45;;;;;;;6.47;1.73;;;23.70;64.80;;;;;;5028812;28;20036;-70
2022/06/22 09:34:40;;;;;;;7.93;2.10;;;23.70;67.30;;;;;;5009078;28;20081;-70
2022/06/22 09:38:01;;;;;;;5.57;1.73;;;23.70;66.00;;;;;;5009270;28;20034;-70
2022/06/22 09:40:52;;;;;;;5.35;1.95;;;23.70;67.00;;;;;;5004221;28;20033;-69
2022/06/22 09:47:31;;;;;;;9.77;2.40;;;23.80;66.60;;;;;;4994141;28;20110;-73
2022/06/22 09:50:26;;;;;;;5.35;1.75;;;23.70;67.10;;;;;;5003147;28;20018;-73
2022/06/22 09:56:33;;;;;;;7.43;2.40;;;23.80;66.70;;;;;;5013872;28;20417;-73
2022/06/22 09:59:46;;;;;;;7.93;2.20;;;23.80;66.20;;;;;;5013565;28;20064;-73
2022/06/22 10:02:30;;;;;;;6.88;2.40;;;23.80;66.60;;;;;;5004024;28;20391;-73
2022/06/22 10:05:10;;;;;;;6.97;2.00;;;23.80;66.10;;;;;;5001420;28;20161;-72
2022/06/22 10:07:49;;;;;;;7.80;2.15;;;23.80;62.60;;;;;;4998655;28;20470;-70
2022/06/22 10:10:52;;;;;;;5.28;2.03;;;23.80;63.00;;;;;;5009625;28;20491;-72
2022/06/22 10:13:51;;;;;;;5.53;2.25;;;23.90;63.50;;;;;;5004847;28;20128;-71
2022/06/22 10:16:23;;;;;;;5.72;2.53;;;23.90;66.20;;;;;;5009029;28;20030;-71
2022/06/22 10:19:06;;;;;;;4.85;2.13;;;23.90;61.00;;;;;;5011984;28;20112;-71
2022/06/22 10:21:55;;;;;;;9.38;3.00;;;24.00;61.40;;;;;;5009102;28;20022;-72
2022/06/22 10:28:29;;;;;;;4.32;2.13;;;24.00;62.10;;;;;;5007671;28;20434;-71
2022/06/22 10:34:32;;;;;;;5.10;1.63;;;24.00;62.30;;;;;;5003554;28;20093;-67
2022/06/22 10:37:45;;;;;;;5.05;2.30;;;24.00;62.50;;;;;;5015320;28;20053;-64
2022/06/22 10:46:49;;;;;;;3.10;1.85;;;24.00;63.50;;;;;;5004328;28;20079;-66
2022/06/22 10:49:36;;;;;;;5.25;2.03;;;24.00;64.90;;;;;;4982856;28;20038;-69
2022/06/22 11:05:51;;;;;;;9.97;1.83;;;24.00;63.90;;;;;;4993789;28;20033;-73
2022/06/22 11:12:04;;;;;;;7.93;2.60;;;24.10;64.10;;;;;;5010930;28;20029;-72
2022/06/22 11:15:22;;;;;;;3.90;2.45;;;24.10;64.70;;;;;;4998366;28;20026;-70
2022/06/22 11:18:41;;;;;;;4.00;2.72;;;24.10;60.80;;;;;;5010485;28;20045;-65
2022/06/22 11:21:28;;;;;;;8.77;2.92;;;24.10;61.00;;;;;;5003157;28;20038;-68
2022/06/22 11:30:56;;;;;;;6.97;2.60;;;24.10;62.50;;;;;;5014682;28;20033;-65
2022/06/22 11:34:16;;;;;;;5.38;1.70;;;24.10;61.10;;;;;;5013674;28;20054;-65
2022/06/22 11:37:20;;;;;;;5.63;2.15;;;24.20;62.00;;;;;;4997134;28;20117;-66
2022/06/22 11:40:25;;;;;;;5.97;2.05;;;24.10;60.90;;;;;;5010739;28;20037;-68
2022/06/22 11:46:56;;;;;;;6.63;2.47;;;24.20;61.70;;;;;;5011240;28;20546;-71
2022/06/22 11:50:01;;;;;;;8.07;2.40;;;24.20;61.90;;;;;;4947001;29;20440;-70
2022/06/22 11:53:02;;;;;;;8.02;2.40;;;24.30;62.50;;;;;;4952214;29;20102;-67
2022/06/22 11:55:45;;;;;;;3.35;2.17;;;24.30;62.80;;;;;;5012175;28;20018;-67
2022/06/22 11:58:48;;;;;;;5.50;2.78;;;24.30;62.70;;;;;;4998125;28;20030;-65
2022/06/22 12:01:36;;;;;;;5.28;2.10;;;24.30;60.90;;;;;;4985177;28;20049;-66
2022/06/22 12:04:07;;;;;;;4.53;3.10;;;24.30;63.40;;;;;;5010421;28;20041;-68
2022/06/22 12:07:19;;;;;;;5.85;2.65;;;24.30;61.60;;;;;;5008365;28;20128;-69
2022/06/22 12:10:25;;;;;;;6.07;3.30;;;24.30;61.50;;;;;;4993794;28;20056;-67
2022/06/22 12:13:11;;;;;;;12.85;1.83;;;24.30;61.90;;;;;;5011704;28;20498;-71
2022/06/22 12:16:03;;;;;;;6.70;2.50;;;24.30;62.80;;;;;;5011421;28;20030;-67
2022/06/22 12:19:27;;;;;;;6.13;2.80;;;24.40;60.30;;;;;;5010598;28;20040;-66
2022/06/22 12:22:02;;;;;;;6.32;2.33;;;24.40;60.40;;;;;;4950464;28;20489;-66
2022/06/22 12:25:06;;;;;;;4.50;2.17;;;24.40;62.50;;;;;;5017503;28;20026;-65
2022/06/22 12:27:41;;;;;;;6.28;2.20;;;24.40;60.40;;;;;;5012344;28;20056;-67
2022/06/22 12:30:13;;;;;;;5.38;2.13;;;24.50;58.50;;;;;;5006504;28;20053;-69
2022/06/22 12:32:55;;;;;;;5.30;1.50;;;24.40;56.90;;;;;;5010225;28;20100;-69
2022/06/22 12:35:29;;;;;;;;;;;24.50;58.70;;;;;;5007177;28;20418;-70
2022/06/22 12:38:12;;;;;;;3.72;2.28;;;24.40;59.60;;;;;;5005768;28;19917;-66
2022/06/22 12:40:43;;;;;;;4.22;1.92;;;24.50;58.50;;;;;;5008317;28;20078;-65
2022/06/22 12:43:34;;;;;;;4.05;1.50;;;24.50;58.70;;;;;;4994695;28;20034;-66
2022/06/22 12:46:31;;;;;;;8.05;1.85;;;24.50;57.70;;;;;;5010681;28;20026;-66
2022/06/22 12:49:19;;;;;;;4.00;1.75;;;24.60;57.40;;;;;;5006157;28;20506;-66
2022/06/22 12:52:03;;;;;;;6.55;2.20;;;24.60;57.10;;;;;;5007884;28;20057;-66
2022/06/22 12:54:36;;;;;;;6.82;2.60;;;24.60;57.10;;;;;;4994038;28;20084;-66
2022/06/22 12:57:23;;;;;;;7.32;2.67;;;24.60;57.30;;;;;;5010810;28;20033;-66
2022/06/22 13:00:05;;;;;;;3.80;1.85;;;24.60;57.00;;;;;;5006840;28;20080;-67
2022/06/22 13:02:36;;;;;;;6.50;1.90;;;24.60;58.80;;;;;;4990550;28;20471;-70
2022/06/22 13:05:20;;;;;;;2.85;1.70;;;24.60;57.20;;;;;;5006567;28;20056;-67
2022/06/22 13:07:54;;;;;;;3.33;1.85;;;24.60;56.30;;;;;;5008055;28;20050;-64
2022/06/22 13:10:25;;;;;;;5.97;2.10;;;24.70;56.30;;;;;;4998262;28;20018;-64
2022/06/22 13:13:00;;;;;;;3.45;1.70;;;24.70;56.00;;;;;;5006181;28;20034;-65
2022/06/22 13:15:50;;;;;;;2.90;1.60;;;24.70;57.10;;;;;;5009293;28;20053;-66
2022/06/22 13:18:48;;;;;;;2.83;1.38;;;24.70;56.30;;;;;;4979377;28;20502;-69
2022/06/22 13:21:30;;;;;;;5.28;1.52;;;24.70;57.70;;;;;;4997768;28;20038;-70
2022/06/22 13:28:10;;;;;;;2.42;1.63;;;24.80;56.90;;;;;;4994200;28;20081;-72
2022/06/22 13:30:56;;;;;;;3.17;1.77;;;24.80;57.50;;;;;;4986760;28;20089;-66
2022/06/22 13:37:01;;;;;;;7.30;1.55;;;24.80;56.10;;;;;;5003231;28;20033;-72
2022/06/22 13:40:01;;;;;;;5.15;1.70;;;24.80;57.20;;;;;;5011151;28;20501;-69
2022/06/22 13:42:44;;;;;;;4.43;1.50;;;24.80;55.80;;;;;;4990658;28;20391;-65
2022/06/22 13:45:20;;;;;;;3.65;1.90;;;24.80;55.00;;;;;;4986368;28;20053;-63
2022/06/22 13:48:17;;;;;;;4.82;1.60;;;24.80;57.50;;;;;;4989234;28;20133;-64
2022/06/22 13:54:31;;;;;;;5.80;1.60;;;24.80;57.40;;;;;;5005644;28;20393;-66
2022/06/22 13:57:19;;;;;;;7.20;2.03;;;24.90;55.30;;;;;;5010510;28;20545;-64
2022/06/22 14:00:00;;;;;;;3.20;1.50;;;24.80;54.30;;;;;;4996410;28;20039;-65
2022/06/22 14:02:42;;;;;;;4.85;1.42;;;24.90;54.10;;;;;;5004670;28;20034;-67
2022/06/22 14:05:25;;;;;;;;;;;24.80;53.60;;;;;;5011387;28;20034;-68
2022/06/22 14:08:08;;;;;;;2.38;1.05;;;24.90;54.20;;;;;;5007175;28;20688;-65
2022/06/22 14:10:57;;;;;;;5.18;1.10;;;24.80;54.00;;;;;;5013226;28;20080;-65
2022/06/22 14:13:35;;;;;;;4.35;1.25;;;24.80;56.40;;;;;;5011463;28;20026;-71
2022/06/22 14:16:10;;;;;;;2.83;1.33;;;24.80;53.60;;;;;;4997190;28;20034;-71
2022/06/22 14:18:57;;;;;;;3.42;1.20;;;24.80;53.90;;;;;;5014180;28;20464;-71
2022/06/22 14:21:46;;;;;;;5.13;1.50;;;24.90;53.90;;;;;;5013613;28;20022;-71
2022/06/22 14:24:37;;;;;;;3.30;1.00;;;24.80;54.00;;;;;;5013951;28;20103;-66
2022/06/22 14:27:22;;;;;;;6.13;1.77;;;24.90;56.90;;;;;;4998019;28;20046;-64
2022/06/22 14:30:16;;;;;;;2.75;1.10;;;24.90;54.80;;;;;;4996360;28;20014;-70
2022/06/22 14:32:47;;;;;;;4.25;1.50;;;24.90;55.70;;;;;;5013249;28;20028;-70
2022/06/22 14:35:34;;;;;;;3.60;1.30;;;24.90;56.00;;;;;;5013546;28;20028;-68
2022/06/22 14:38:00;;;;;;;2.33;0.80;;;24.90;58.80;;;;;;5003897;28;20502;-70
2022/06/22 14:40:40;;;;;;;4.57;1.63;;;24.80;58.80;;;;;;5010242;28;20050;-70
2022/06/22 14:43:27;;;;;;;5.85;1.50;;;24.90;54.50;;;;;;5010455;28;20088;-71
2022/06/22 14:46:02;;;;;;;7.22;1.20;;;24.90;54.60;;;;;;5010480;28;20031;-66
2022/06/22 14:48:44;;;;;;;2.88;1.15;;;24.90;56.80;;;;;;5014209;28;20475;-71
2022/06/22 14:51:20;;;;;;;;;;;24.90;57.60;;;;;;5014857;28;20022;-69
2022/06/22 14:53:54;;;;;;;4.35;1.15;;;24.90;58.30;;;;;;5011325;28;19962;-72
2022/06/22 14:56:38;;;;;;;3.17;1.15;;;24.90;58.10;;;;;;5013359;28;20056;-68
2022/06/22 14:59:39;;;;;;;5.40;1.08;;;25.00;55.80;;;;;;5008274;28;20489;-69
2022/06/22 15:02:24;;;;;;;3.90;1.70;;;25.00;55.70;;;;;;5006159;28;20136;-71
2022/06/22 15:05:06;;;;;;;3.03;0.90;;;25.00;58.50;;;;;;5011494;28;20450;-69
2022/06/22 15:07:43;;;;;;;4.23;1.33;;;25.00;57.50;;;;;;5011818;28;20073;-69
2022/06/22 15:10:31;;;;;;;3.25;1.40;;;25.00;57.20;;;;;;5010064;28;20033;-68